createdAt,value
2018-11-10T00:03:33.854Z,96701.66
2018-11-10T00:08:28.959Z,96699.64
2018-11-10T00:13:23.906Z,96697.29
2018-11-10T00:18:18.779Z,96697.80
2018-11-10T00:23:13.715Z,96690.13
2018-11-10T00:28:15.819Z,96689.56
2018-11-10T00:33:10.672Z,96681.75
2018-11-10T00:38:06.041Z,96690.75
2018-11-10T00:43:01.105Z,96695.36
2018-11-10T00:53:08.465Z,96686.09
2018-11-10T00:58:06.714Z,96679.13
2018-11-10T01:03:25.528Z,96688.40
2018-11-10T01:08:23.730Z,96673.43
2018-11-10T01:13:23.622Z,96673.19
2018-11-10T01:18:18.788Z,96683.10
2018-11-10T01:23:20.510Z,96667.41
2018-11-10T01:28:18.199Z,96674.76
2018-11-10T01:33:18.310Z,96667.50
2018-11-10T01:38:20.851Z,96663.13
2018-11-10T01:43:15.773Z,96659.42
2018-11-10T01:53:40.483Z,96648.15
2018-11-10T01:58:43.677Z,96635.78
2018-11-10T02:03:54.313Z,96632.36
2018-11-10T02:18:23.782Z,96622.94
2018-11-10T02:23:51.466Z,96617.48
2018-11-10T02:40:49.353Z,96611.89
2018-11-10T02:46:06.220Z,96617.37
2018-11-10T02:51:04.745Z,96610.45
2018-11-10T02:56:03.103Z,96611.05
2018-11-10T03:01:32.333Z,96602.86
2018-11-10T03:06:30.349Z,96598.68
2018-11-10T03:11:25.522Z,96589.31
2018-11-10T03:16:20.889Z,96593.71
2018-11-10T03:21:15.844Z,96593.23
2018-11-10T03:26:11.051Z,96590.62
2018-11-10T03:31:12.500Z,96592.63
2018-11-10T03:41:53.213Z,96592.98
2018-11-10T03:47:11.880Z,96591.68
2018-11-10T03:52:17.945Z,96582.42
2018-11-10T03:57:33.563Z,96573.85
2018-11-10T04:02:29.892Z,96583.14
2018-11-10T04:07:28.798Z,96585.50
2018-11-10T04:12:28.772Z,96582.16
2018-11-10T04:17:24.531Z,96585.73
2018-11-10T04:22:39.871Z,96576.56
2018-11-10T04:27:35.602Z,96574.80
2018-11-10T04:38:08.111Z,96563.37
2018-11-10T04:43:10.774Z,96557.97
2018-11-10T04:53:25.598Z,96549.80
2018-11-10T04:58:20.607Z,96547.58
2018-11-10T05:03:15.599Z,96545.16
2018-11-10T05:08:13.401Z,96544.22
2018-11-10T05:13:08.206Z,96538.52
2018-11-10T05:18:09.714Z,96544.37
2018-11-10T05:23:07.372Z,96548.03
2018-11-10T05:28:13.001Z,96549.71
2018-11-10T05:33:10.138Z,96549.44
2018-11-10T05:38:05.173Z,96542.52
2018-11-10T05:43:14.292Z,96534.81
2018-11-10T05:48:09.261Z,96527.20
2018-11-10T05:53:06.892Z,96525.30
2018-11-10T05:58:05.422Z,96520.81
2018-11-10T06:03:00.317Z,96510.36
2018-11-10T06:07:58.219Z,96510.97
2018-11-10T06:12:54.890Z,96507.05
2018-11-10T06:17:49.776Z,96502.17
2018-11-10T06:22:44.591Z,96508.72
2018-11-10T06:27:39.746Z,96513.81
2018-11-10T06:32:34.597Z,96510.37
2018-11-10T06:37:29.535Z,96508.23
2018-11-10T06:42:24.600Z,96504.66
2018-11-10T06:47:19.485Z,96507.15
2018-11-10T06:52:14.437Z,96505.27
2018-11-10T06:57:09.232Z,96499.31
2018-11-10T07:02:05.978Z,96497.30
2018-11-10T07:07:02.593Z,96512.23
2018-11-10T07:17:39.761Z,96515.59
2018-11-10T07:23:38.389Z,96516.39
2018-11-10T07:34:38.337Z,96528.96
2018-11-10T07:55:53.745Z,96522.92
2018-11-10T08:00:49.606Z,96521.36
2018-11-10T08:05:45.439Z,96519.27
2018-11-10T08:10:42.984Z,96522.94
2018-11-10T08:15:38.484Z,96540.59
2018-11-10T08:20:34.093Z,96547.30
2018-11-10T08:25:28.941Z,96540.64
2018-11-10T08:30:26.146Z,96549.30
2018-11-10T08:35:21.494Z,96555.02
2018-11-10T08:40:17.832Z,96561.22
2018-11-10T08:45:13.695Z,96548.76
2018-11-10T08:50:10.118Z,96563.27
2018-11-10T08:55:16.144Z,96565.77
2018-11-10T09:00:12.005Z,96574.45
2018-11-10T09:05:09.055Z,96573.29
2018-11-10T09:10:04.048Z,96575.42
2018-11-10T09:14:59.179Z,96565.09
2018-11-10T09:19:54.228Z,96570.68
2018-11-10T09:24:49.634Z,96575.56
2018-11-10T09:29:44.924Z,96576.05
2018-11-10T09:34:40.345Z,96577.72
2018-11-10T09:39:36.308Z,96574.88
2018-11-10T09:44:33.173Z,96567.39
2018-11-10T09:49:28.021Z,96558.70
2018-11-10T09:54:22.938Z,96563.45
2018-11-10T09:59:18.505Z,96550.23
2018-11-10T10:04:13.524Z,96551.98
2018-11-10T10:09:12.244Z,96548.59
2018-11-10T10:14:09.069Z,96543.73
2018-11-10T10:19:07.839Z,96529.78
2018-11-10T10:33:57.965Z,96526.41
2018-11-10T10:39:11.798Z,96536.70
2018-11-10T10:44:42.604Z,96529.32
2018-11-10T11:48:58.391Z,96495.81
2018-11-10T11:53:57.804Z,96490.71
2018-11-10T11:58:55.119Z,96480.11
2018-11-10T12:03:55.316Z,96477.58
2018-11-10T12:08:56.758Z,96476.27
2018-11-10T12:13:53.380Z,96476.66
2018-11-10T12:18:48.822Z,96472.41
2018-11-10T12:23:47.073Z,96474.45
2018-11-10T12:28:49.387Z,96472.77
2018-11-10T12:33:45.841Z,96463.26
2018-11-10T12:38:41.319Z,96464.37
2018-11-10T13:01:36.087Z,96443.40
2018-11-10T13:06:48.004Z,96445.50
2018-11-10T13:28:09.312Z,96410.40
2018-11-10T13:38:31.537Z,96419.22
2018-11-10T13:43:26.726Z,96421.33
2018-11-10T13:48:21.542Z,96413.42
2018-11-10T13:53:16.719Z,96409.28
2018-11-10T13:58:13.359Z,96410.63
2018-11-10T14:03:08.341Z,96404.83
2018-11-10T14:08:03.281Z,96404.61
2018-11-10T14:12:58.258Z,96410.72
2018-11-10T14:17:53.211Z,96406.53
2018-11-10T14:22:48.214Z,96408.40
2018-11-10T14:27:44.004Z,96417.97
2018-11-10T14:32:40.085Z,96416.09
2018-11-10T14:37:36.262Z,96427.72
2018-11-10T14:42:41.593Z,96428.45
2018-11-10T14:54:20.556Z,96433.15
2018-11-10T14:59:55.606Z,96441.95
2018-11-10T15:05:09.166Z,96432.65
2018-11-10T15:10:42.233Z,96440.64
2018-11-10T15:16:12.715Z,96427.20
2018-11-10T15:21:24.311Z,96428.76
2018-11-10T15:26:44.762Z,96425.34
2018-11-10T15:31:43.207Z,96411.34
2018-11-10T15:36:38.249Z,96440.01
2018-11-10T15:41:34.569Z,96433.09
2018-11-10T15:46:36.593Z,96439.89
2018-11-10T15:56:42.613Z,96458.55
2018-11-10T16:01:37.739Z,96459.73
2018-11-10T16:06:32.935Z,96458.91
2018-11-10T16:11:28.149Z,96472.45
2018-11-10T16:31:56.660Z,96471.44
2018-11-10T16:37:04.372Z,96473.94
2018-11-10T17:52:19.233Z,96487.66
2018-11-10T18:07:58.174Z,96478.05
2018-11-10T18:12:59.038Z,96480.88
2018-11-10T18:17:54.862Z,96475.31
2018-11-10T18:22:56.321Z,96474.26
2018-11-10T18:32:56.040Z,96479.82
2018-11-10T18:37:52.117Z,96485.78
2018-11-10T18:42:57.397Z,96483.89
2018-11-10T18:47:57.663Z,96471.77
2018-11-10T18:52:59.237Z,96474.86
2018-11-10T18:58:07.456Z,96465.71
2018-11-10T19:03:03.057Z,96458.38
2018-11-10T19:08:00.362Z,96451.13
2018-11-10T19:12:57.425Z,96434.60
2018-11-10T19:17:53.643Z,96439.73
2018-11-10T19:22:50.042Z,96445.29
2018-11-10T19:33:10.694Z,96447.66
2018-11-10T19:38:05.735Z,96455.36
2018-11-10T19:43:01.485Z,96466.53
2018-11-10T19:47:57.240Z,96471.91
2018-11-10T19:52:52.343Z,96483.01
2018-11-10T19:57:47.458Z,96496.44
2018-11-10T20:02:43.218Z,96499.25
2018-11-10T20:07:38.378Z,96497.66
2018-11-10T20:12:33.376Z,96495.87
2018-11-10T20:17:28.832Z,96489.06
2018-11-10T20:22:27.106Z,96489.88
2018-11-10T20:27:23.261Z,96481.87
2018-11-10T20:32:19.799Z,96482.99
2018-11-10T20:37:15.092Z,96479.86
2018-11-10T20:42:10.369Z,96468.38
2018-11-10T20:47:17.571Z,96466.53
2018-11-10T20:52:12.943Z,96467.23
2018-11-10T20:57:09.413Z,96456.89
2018-11-10T21:02:08.012Z,96466.16
2018-11-10T21:07:08.030Z,96473.94
2018-11-10T21:12:04.177Z,96461.78
2018-11-10T21:17:09.994Z,96448.14
2018-11-10T21:22:10.063Z,96469.39
2018-11-10T21:27:10.308Z,96484.91
2018-11-10T21:32:12.819Z,96511.55
2018-11-10T21:37:11.742Z,96516.42
2018-11-10T21:42:06.808Z,96538.27
2018-11-10T21:47:10.774Z,96535.30
2018-11-10T21:52:15.232Z,96547.02
2018-11-10T21:57:13.796Z,96543.64
2018-11-10T22:02:15.953Z,96539.66
2018-11-10T22:07:19.449Z,96538.91
2018-11-10T22:12:17.917Z,96548.55
2018-11-10T22:17:18.526Z,96545.73
2018-11-10T22:22:15.123Z,96545.25
2018-11-10T22:27:23.668Z,96550.70
2018-11-10T22:32:29.835Z,96539.86
2018-11-10T22:44:18.915Z,96511.27
2018-11-10T22:49:13.752Z,96505.11
2018-11-10T22:54:08.596Z,96514.41
2018-11-10T22:59:06.106Z,96507.55
2018-11-10T23:04:02.256Z,96504.67
2018-11-10T23:08:57.170Z,96531.34
2018-11-10T23:13:52.025Z,96551.41
2018-11-10T23:18:47.009Z,96545.86
2018-11-10T23:23:48.974Z,96535.97
2018-11-10T23:28:43.895Z,96525.27
2018-11-10T23:33:39.437Z,96524.81
2018-11-10T23:38:37.712Z,96532.59
2018-11-10T23:43:32.577Z,96557.88
2018-11-10T23:48:27.853Z,96555.80
2018-11-10T23:53:22.703Z,96552.23
2018-11-10T23:58:17.560Z,96561.53
